createdAt,value
2019-03-24T00:01:21.041Z,7.81
2019-03-24T00:02:55.325Z,7.81
2019-03-24T00:04:29.366Z,7.82
2019-03-24T00:06:04.015Z,7.80
2019-03-24T00:07:38.372Z,7.81
2019-03-24T00:09:12.593Z,7.79
2019-03-24T00:10:46.907Z,7.76
2019-03-24T00:12:20.593Z,7.74
2019-03-24T00:13:54.234Z,7.74
2019-03-24T00:15:28.546Z,7.73
2019-03-24T00:17:02.859Z,7.72
2019-03-24T00:18:37.115Z,7.71
2019-03-24T00:20:14.486Z,7.70
2019-03-24T00:21:48.997Z,7.67
2019-03-24T00:23:23.256Z,7.66
2019-03-24T00:24:57.564Z,7.65
2019-03-24T00:26:31.799Z,7.64
2019-03-24T00:28:06.105Z,7.62
2019-03-24T00:29:40.468Z,7.58
2019-03-24T00:31:14.724Z,7.53
2019-03-24T00:32:48.938Z,7.51
2019-03-24T00:34:23.211Z,7.50
2019-03-24T00:35:57.500Z,7.47
2019-03-24T00:37:32.048Z,7.45
2019-03-24T00:39:07.136Z,7.41
2019-03-24T00:40:41.416Z,7.35
2019-03-24T00:42:15.662Z,7.31
2019-03-24T00:43:49.972Z,7.28
2019-03-24T00:45:24.310Z,7.25
2019-03-24T00:46:58.546Z,7.20
2019-03-24T00:48:32.780Z,7.13
2019-03-24T00:50:07.826Z,7.07
2019-03-24T00:51:42.089Z,7.01
2019-03-24T00:53:16.391Z,6.95
2019-03-24T00:54:50.668Z,6.88
2019-03-24T00:56:24.932Z,6.82
2019-03-24T00:57:59.165Z,6.72
2019-03-24T00:59:33.454Z,6.59
2019-03-24T01:01:07.828Z,6.48
2019-03-24T01:02:42.121Z,6.38
2019-03-24T01:04:16.442Z,6.29
2019-03-24T01:05:51.179Z,6.20
2019-03-24T01:07:25.451Z,6.13
2019-03-24T01:08:59.695Z,6.04
2019-03-24T01:10:34.004Z,5.94
2019-03-24T01:12:07.739Z,5.88
2019-03-24T01:13:41.492Z,5.80
2019-03-24T01:15:15.108Z,5.76
2019-03-24T01:16:48.754Z,5.72
2019-03-24T01:18:22.487Z,5.69
2019-03-24T01:19:56.143Z,5.66
2019-03-24T01:21:29.795Z,5.62
2019-03-24T01:23:04.701Z,5.59
2019-03-24T01:24:38.402Z,5.55
2019-03-24T01:26:12.031Z,5.51
2019-03-24T01:27:45.749Z,5.46
2019-03-24T01:29:19.393Z,5.40
2019-03-24T01:30:53.076Z,5.37
2019-03-24T01:32:26.809Z,5.36
2019-03-24T01:34:00.454Z,5.33
2019-03-24T01:35:34.187Z,5.30
2019-03-24T01:37:08.488Z,5.28
2019-03-24T01:38:42.630Z,5.26
2019-03-24T01:40:16.284Z,5.27
2019-03-24T01:41:49.917Z,5.28
2019-03-24T01:43:24.195Z,5.29
2019-03-24T01:44:57.887Z,5.28
2019-03-24T01:46:31.600Z,5.25
2019-03-24T01:48:05.441Z,5.19
2019-03-24T01:49:39.081Z,5.15
2019-03-24T01:51:12.768Z,5.13
2019-03-24T01:52:46.449Z,5.10
2019-03-24T01:54:20.701Z,5.05
2019-03-24T01:55:54.388Z,4.98
2019-03-24T01:57:28.121Z,4.92
2019-03-24T01:59:01.878Z,4.87
2019-03-24T02:00:35.580Z,4.84
2019-03-24T02:02:09.380Z,4.82
2019-03-24T02:03:43.609Z,4.80
2019-03-24T02:05:17.344Z,4.77
2019-03-24T02:06:51.676Z,4.76
2019-03-24T02:08:25.326Z,4.72
2019-03-24T02:09:59.010Z,4.69
2019-03-24T02:11:32.736Z,4.67
2019-03-24T02:13:06.364Z,4.64
2019-03-24T02:14:40.091Z,4.62
2019-03-24T02:16:14.427Z,4.59
2019-03-24T02:17:48.155Z,4.55
2019-03-24T02:19:21.857Z,4.49
2019-03-24T02:20:55.610Z,4.43
2019-03-24T02:22:29.275Z,4.38
2019-03-24T02:24:02.988Z,4.35
2019-03-24T02:25:37.060Z,4.33
2019-03-24T02:27:10.737Z,4.32
2019-03-24T02:28:45.037Z,4.30
2019-03-24T02:30:18.680Z,4.28
2019-03-24T02:31:52.328Z,4.26
2019-03-24T02:33:26.067Z,4.17
2019-03-24T02:34:59.718Z,4.12
2019-03-24T02:36:33.409Z,4.10
2019-03-24T02:38:07.143Z,4.08
2019-03-24T02:39:40.773Z,4.08
2019-03-24T02:41:15.566Z,4.07
2019-03-24T02:42:49.340Z,4.03
2019-03-24T02:44:23.374Z,3.99
2019-03-24T02:45:57.103Z,3.96
2019-03-24T02:47:30.746Z,3.90
2019-03-24T02:49:04.459Z,3.87
2019-03-24T02:50:38.182Z,3.81
2019-03-24T02:52:11.880Z,3.79
2019-03-24T02:53:45.615Z,3.78
2019-03-24T02:55:19.960Z,3.75
2019-03-24T02:56:54.473Z,3.73
2019-03-24T02:58:28.122Z,3.69
2019-03-24T03:00:02.479Z,3.68
2019-03-24T03:01:36.192Z,3.68
2019-03-24T03:03:09.883Z,3.68
2019-03-24T03:04:43.502Z,3.68
2019-03-24T03:06:17.301Z,3.66
2019-03-24T03:07:51.168Z,3.66
2019-03-24T03:09:24.856Z,3.68
2019-03-24T03:10:58.629Z,3.67
2019-03-24T03:12:32.666Z,3.67
2019-03-24T03:14:06.412Z,3.67
2019-03-24T03:15:40.112Z,3.68
2019-03-24T03:17:13.882Z,3.65
2019-03-24T03:18:47.595Z,3.65
2019-03-24T03:20:21.309Z,3.63
2019-03-24T03:21:54.972Z,3.58
2019-03-24T03:23:28.714Z,3.51
2019-03-24T03:25:02.410Z,3.43
2019-03-24T03:26:36.058Z,3.36
2019-03-24T03:28:10.316Z,3.32
2019-03-24T03:29:44.015Z,3.28
2019-03-24T03:31:17.762Z,3.29
2019-03-24T03:32:51.569Z,3.27
2019-03-24T03:34:25.348Z,3.26
2019-03-24T03:35:59.001Z,3.23
2019-03-24T03:37:32.683Z,3.21
2019-03-24T03:39:07.399Z,3.20
2019-03-24T03:40:41.094Z,3.17
2019-03-24T03:42:14.888Z,3.16
2019-03-24T03:43:48.538Z,3.13
2019-03-24T03:45:27.078Z,3.11
2019-03-24T03:47:00.733Z,3.07
2019-03-24T03:48:34.417Z,3.02
2019-03-24T03:50:08.868Z,2.92
2019-03-24T03:51:42.550Z,2.86
2019-03-24T03:53:16.193Z,2.79
2019-03-24T03:54:49.880Z,2.73
2019-03-24T03:56:23.488Z,2.72
2019-03-24T03:57:57.274Z,2.69
2019-03-24T03:59:31.226Z,2.66
2019-03-24T04:01:05.040Z,2.62
2019-03-24T04:02:38.795Z,2.59
2019-03-24T04:04:12.537Z,2.52
2019-03-24T04:05:46.192Z,2.46
2019-03-24T04:07:19.820Z,2.41
2019-03-24T04:08:54.548Z,2.36
2019-03-24T04:10:28.235Z,2.30
2019-03-24T04:12:01.953Z,2.21
2019-03-24T04:13:35.618Z,2.13
2019-03-24T04:15:09.751Z,2.07
2019-03-24T04:16:43.525Z,2.03
2019-03-24T04:18:17.187Z,2.02
2019-03-24T04:19:50.835Z,2.02
2019-03-24T04:21:24.483Z,2.04
2019-03-24T04:22:58.168Z,2.05
2019-03-24T04:24:31.880Z,2.07
2019-03-24T04:26:05.590Z,2.08
2019-03-24T04:27:39.290Z,2.02
2019-03-24T04:29:13.048Z,1.94
2019-03-24T04:30:46.685Z,1.86
2019-03-24T04:32:22.408Z,1.84
2019-03-24T04:33:56.099Z,1.86
2019-03-24T04:35:29.836Z,1.89
2019-03-24T04:37:03.539Z,1.93
2019-03-24T04:38:37.226Z,1.95
2019-03-24T04:40:10.939Z,1.99
2019-03-24T04:41:44.579Z,2.04
2019-03-24T04:43:18.329Z,2.06
2019-03-24T04:44:52.051Z,2.10
2019-03-24T04:46:25.763Z,2.15
2019-03-24T04:47:59.448Z,2.23
2019-03-24T04:49:33.109Z,2.33
2019-03-24T04:51:06.736Z,2.39
2019-03-24T04:52:40.395Z,2.46
2019-03-24T04:54:14.174Z,2.53
2019-03-24T04:55:47.832Z,2.59
2019-03-24T04:57:21.538Z,2.66
2019-03-24T04:58:55.180Z,2.70
2019-03-24T05:00:39.895Z,2.75
2019-03-24T05:02:13.648Z,2.84
2019-03-24T05:03:47.300Z,2.91
2019-03-24T05:05:21.010Z,2.92
2019-03-24T05:06:55.029Z,2.99
2019-03-24T05:08:30.268Z,3.22
2019-03-24T05:10:06.010Z,3.50
2019-03-24T05:11:39.724Z,3.84
2019-03-24T05:13:13.353Z,4.09
2019-03-24T05:14:47.024Z,4.47
2019-03-24T05:16:21.382Z,4.87
2019-03-24T05:17:55.671Z,5.30
2019-03-24T05:19:29.990Z,5.53
2019-03-24T05:21:04.304Z,5.84
2019-03-24T05:22:38.671Z,6.05
2019-03-24T05:24:12.833Z,6.16
2019-03-24T05:25:47.149Z,6.14
2019-03-24T05:27:21.502Z,6.46
2019-03-24T05:28:55.798Z,6.69
2019-03-24T05:30:30.088Z,7.06
2019-03-24T05:32:04.732Z,7.47
2019-03-24T05:33:39.036Z,7.78
2019-03-24T05:35:13.278Z,8.02
2019-03-24T05:36:47.625Z,8.31
2019-03-24T05:38:21.914Z,8.64
2019-03-24T05:39:56.261Z,8.87
2019-03-24T05:41:30.594Z,9.13
2019-03-24T05:43:04.838Z,9.22
2019-03-24T05:44:39.108Z,9.19
2019-03-24T05:46:13.411Z,9.24
2019-03-24T05:47:47.758Z,9.15
2019-03-24T05:49:21.995Z,9.25
2019-03-24T05:50:56.253Z,9.48
2019-03-24T05:52:30.552Z,9.79
2019-03-24T05:54:04.977Z,10.17
2019-03-24T05:55:39.267Z,10.18
2019-03-24T05:57:15.703Z,10.41
2019-03-24T05:58:50.041Z,10.77
2019-03-24T06:00:24.338Z,11.10
2019-03-24T06:01:58.655Z,11.15
2019-03-24T06:03:32.973Z,11.20
2019-03-24T06:05:07.658Z,11.58
2019-03-24T06:06:43.344Z,11.94
2019-03-24T06:08:17.581Z,12.17
2019-03-24T06:09:51.813Z,12.36
2019-03-24T06:11:26.608Z,12.58
2019-03-24T06:13:02.083Z,12.88
2019-03-24T06:14:36.391Z,13.06
2019-03-24T06:16:10.706Z,13.21
2019-03-24T06:17:47.981Z,13.32
2019-03-24T06:19:21.312Z,13.65
2019-03-24T06:20:55.604Z,13.98
2019-03-24T06:22:29.820Z,14.12
2019-03-24T06:24:04.147Z,14.22
2019-03-24T06:25:38.482Z,14.42
2019-03-24T06:27:12.710Z,14.74
2019-03-24T06:28:47.011Z,15.01
2019-03-24T06:30:21.318Z,14.86
2019-03-24T06:31:55.638Z,14.60
2019-03-24T06:33:29.946Z,14.54
2019-03-24T06:35:06.005Z,14.45
2019-03-24T06:36:40.306Z,14.46
2019-03-24T06:38:14.612Z,14.59
2019-03-24T06:39:48.900Z,14.69
2019-03-24T06:41:23.196Z,15.01
2019-03-24T06:42:57.519Z,15.20
2019-03-24T06:44:31.840Z,15.44
2019-03-24T06:46:06.699Z,15.67
2019-03-24T06:47:40.959Z,16.03
2019-03-24T06:49:15.193Z,16.45
2019-03-24T06:50:49.455Z,16.55
2019-03-24T06:52:23.770Z,16.32
2019-03-24T06:53:58.073Z,15.95
2019-03-24T06:55:32.293Z,15.81
2019-03-24T06:57:06.649Z,15.70
2019-03-24T06:58:40.904Z,15.71
2019-03-24T07:00:15.702Z,15.59
2019-03-24T07:01:50.012Z,15.67
2019-03-24T07:03:24.335Z,15.54
2019-03-24T07:04:58.953Z,15.66
2019-03-24T07:06:34.783Z,16.15
2019-03-24T07:08:09.093Z,16.66
2019-03-24T07:09:43.327Z,17.22
2019-03-24T07:11:17.586Z,17.25
2019-03-24T07:12:52.316Z,16.97
2019-03-24T07:14:26.625Z,17.20
2019-03-24T07:16:00.933Z,17.04
2019-03-24T07:17:36.778Z,17.36
2019-03-24T07:19:11.575Z,17.78
2019-03-24T07:20:45.885Z,18.16
2019-03-24T07:22:20.959Z,18.29
2019-03-24T07:23:55.255Z,18.78
2019-03-24T07:25:30.971Z,18.91
2019-03-24T07:27:05.296Z,19.26
2019-03-24T07:28:41.517Z,19.74
2019-03-24T07:30:15.957Z,19.72
2019-03-24T07:31:50.302Z,19.95
2019-03-24T07:33:24.676Z,20.29
2019-03-24T07:34:59.000Z,20.59
2019-03-24T07:36:33.307Z,20.60
2019-03-24T07:38:07.610Z,20.67
2019-03-24T07:39:42.004Z,20.55
2019-03-24T07:41:18.587Z,20.40
2019-03-24T07:42:52.826Z,20.46
2019-03-24T07:44:27.085Z,20.85
2019-03-24T07:46:01.540Z,21.13
2019-03-24T07:47:35.844Z,21.36
2019-03-24T07:49:10.171Z,21.46
2019-03-24T07:50:44.430Z,21.83
2019-03-24T07:52:20.106Z,22.09
2019-03-24T07:53:56.394Z,21.88
2019-03-24T07:55:30.706Z,21.62
2019-03-24T07:57:05.027Z,21.67
2019-03-24T07:58:39.361Z,21.71
2019-03-24T08:00:13.978Z,21.85
2019-03-24T08:01:48.278Z,22.21
2019-03-24T08:03:22.569Z,22.47
2019-03-24T08:04:56.824Z,22.52
2019-03-24T08:06:31.148Z,22.49
2019-03-24T08:08:07.636Z,22.35
2019-03-24T08:09:41.859Z,22.49
2019-03-24T08:11:16.202Z,22.88
2019-03-24T08:12:50.429Z,23.26
2019-03-24T08:14:24.886Z,23.47
2019-03-24T08:15:59.788Z,23.27
2019-03-24T08:17:34.097Z,23.57
2019-03-24T08:19:08.375Z,23.79
2019-03-24T08:20:42.656Z,23.61
2019-03-24T08:22:16.896Z,23.56
2019-03-24T08:23:51.229Z,23.02
2019-03-24T08:25:25.555Z,22.65
2019-03-24T08:26:59.861Z,22.87
2019-03-24T08:28:34.145Z,23.03
2019-03-24T08:30:09.320Z,23.15
2019-03-24T08:31:43.564Z,23.04
2019-03-24T08:33:17.858Z,23.16
2019-03-24T08:34:52.163Z,23.21
2019-03-24T08:36:26.930Z,23.42
2019-03-24T08:38:01.149Z,23.81
2019-03-24T08:39:37.708Z,24.21
2019-03-24T08:41:12.016Z,24.58
2019-03-24T08:42:46.284Z,24.63
2019-03-24T08:44:20.615Z,24.55
2019-03-24T08:45:54.936Z,24.46
2019-03-24T08:47:29.212Z,24.17
2019-03-24T08:49:03.557Z,23.67
2019-03-24T08:50:37.853Z,23.64
2019-03-24T08:52:12.083Z,23.69
2019-03-24T08:53:46.392Z,23.69
2019-03-24T08:55:20.753Z,23.86
2019-03-24T08:56:55.082Z,24.27
2019-03-24T08:58:29.327Z,23.91
2019-03-24T09:00:04.768Z,24.01
2019-03-24T09:01:38.973Z,24.22
2019-03-24T09:03:13.288Z,24.49
2019-03-24T09:04:47.550Z,24.72
2019-03-24T09:06:21.930Z,24.49
2019-03-24T09:07:56.718Z,23.87
2019-03-24T09:09:31.006Z,24.03
2019-03-24T09:11:05.417Z,24.16
2019-03-24T09:12:39.705Z,24.20
2019-03-24T09:14:14.009Z,24.25
2019-03-24T09:15:51.264Z,24.35
2019-03-24T09:17:25.508Z,24.50
2019-03-24T09:18:59.811Z,24.57
2019-03-24T09:20:41.586Z,24.56
2019-03-24T09:22:09.902Z,24.36
2019-03-24T09:23:44.419Z,24.22
2019-03-24T09:25:18.817Z,24.49
2019-03-24T09:26:53.154Z,24.53
2019-03-24T09:28:27.453Z,24.64
2019-03-24T09:30:01.810Z,24.79
2019-03-24T09:31:36.416Z,24.90
2019-03-24T09:33:10.683Z,24.69
2019-03-24T09:34:44.906Z,24.28
2019-03-24T09:36:19.142Z,24.26
2019-03-24T09:37:53.416Z,24.46
2019-03-24T09:39:28.208Z,24.53
2019-03-24T09:41:02.556Z,24.60
2019-03-24T09:42:36.869Z,24.35
2019-03-24T09:44:12.802Z,24.41
2019-03-24T09:45:47.147Z,24.61
2019-03-24T09:47:21.437Z,24.75
2019-03-24T09:49:03.068Z,24.90
2019-03-24T09:50:31.603Z,25.04
2019-03-24T09:52:05.857Z,25.24
2019-03-24T09:53:40.127Z,25.24
2019-03-24T09:55:14.386Z,25.11
2019-03-24T09:56:48.701Z,25.27
2019-03-24T09:58:22.942Z,25.18
2019-03-24T09:59:57.247Z,25.13
2019-03-24T10:01:31.613Z,25.11
2019-03-24T10:03:06.016Z,25.05
2019-03-24T10:04:40.312Z,24.58
2019-03-24T10:06:14.598Z,24.09
2019-03-24T10:07:48.941Z,23.34
2019-03-24T10:09:23.218Z,23.03
2019-03-24T10:10:57.444Z,22.55
2019-03-24T10:12:31.739Z,21.97
2019-03-24T10:14:06.047Z,21.67
2019-03-24T10:15:40.285Z,21.43
2019-03-24T10:17:14.661Z,21.40
2019-03-24T10:18:48.950Z,21.36
2019-03-24T10:20:23.229Z,20.95
2019-03-24T10:21:57.455Z,20.81
2019-03-24T10:23:31.673Z,20.55
2019-03-24T10:25:07.462Z,20.63
2019-03-24T10:26:42.507Z,20.36
2019-03-24T10:28:16.847Z,20.30
2019-03-24T10:29:51.167Z,20.19
2019-03-24T10:31:25.447Z,19.92
2019-03-24T10:32:59.796Z,19.55
2019-03-24T10:34:34.101Z,19.40
2019-03-24T10:36:11.426Z,19.14
2019-03-24T10:37:45.734Z,18.87
2019-03-24T10:39:20.072Z,19.04
2019-03-24T10:40:54.445Z,19.18
2019-03-24T10:42:29.261Z,19.22
2019-03-24T10:44:03.482Z,19.12
2019-03-24T10:45:37.757Z,19.05
2019-03-24T10:47:13.570Z,19.15
2019-03-24T10:48:47.882Z,19.11
2019-03-24T10:50:22.143Z,19.21
2019-03-24T10:51:56.363Z,19.37
2019-03-24T10:53:31.124Z,19.49
2019-03-24T10:55:12.167Z,19.48
2019-03-24T10:56:46.488Z,19.40
2019-03-24T10:58:20.685Z,19.39
2019-03-24T10:59:55.029Z,19.45
2019-03-24T11:01:29.337Z,19.41
2019-03-24T11:03:05.251Z,19.45
2019-03-24T11:04:39.530Z,19.57
2019-03-24T11:06:13.894Z,19.75
2019-03-24T11:07:48.206Z,19.89
2019-03-24T11:09:22.549Z,19.97
2019-03-24T11:10:56.862Z,20.02
2019-03-24T11:12:31.162Z,20.05
2019-03-24T11:14:05.451Z,19.98
2019-03-24T11:15:39.781Z,20.05
2019-03-24T11:17:14.104Z,20.22
2019-03-24T11:18:48.525Z,20.08
2019-03-24T11:20:22.860Z,20.04
2019-03-24T11:21:57.068Z,19.90
2019-03-24T11:23:31.361Z,19.74
2019-03-24T11:25:07.868Z,19.51
2019-03-24T11:26:42.201Z,19.65
2019-03-24T11:28:16.544Z,19.66
2019-03-24T11:29:50.797Z,19.53
2019-03-24T11:31:25.092Z,19.30
2019-03-24T11:32:59.356Z,19.19
2019-03-24T11:34:34.036Z,19.11
2019-03-24T11:36:08.304Z,19.15
2019-03-24T11:37:42.628Z,19.19
2019-03-24T11:39:16.924Z,19.23
2019-03-24T11:40:51.212Z,19.36
2019-03-24T11:42:25.500Z,19.42
2019-03-24T11:44:00.200Z,19.44
2019-03-24T11:45:34.499Z,19.62
2019-03-24T11:47:10.420Z,19.64
2019-03-24T11:48:44.716Z,19.73
2019-03-24T11:50:19.008Z,19.79
2019-03-24T11:51:53.372Z,19.80
2019-03-24T11:53:27.645Z,19.87
2019-03-24T11:55:01.867Z,19.89
2019-03-24T11:56:36.219Z,19.85
2019-03-24T11:58:10.514Z,19.45
2019-03-24T11:59:45.235Z,19.37
2019-03-24T12:01:19.465Z,19.30
2019-03-24T12:02:53.692Z,19.28
2019-03-24T12:04:27.954Z,19.22
2019-03-24T12:06:02.260Z,19.18
2019-03-24T12:07:36.640Z,19.19
2019-03-24T12:09:10.917Z,19.13
2019-03-24T12:10:45.200Z,19.21
2019-03-24T12:12:19.448Z,19.25
2019-03-24T12:13:53.767Z,19.28
2019-03-24T12:15:28.202Z,19.30
2019-03-24T12:17:02.490Z,19.23
2019-03-24T12:18:36.687Z,19.34
2019-03-24T12:20:11.390Z,19.32
2019-03-24T12:21:45.654Z,19.28
2019-03-24T12:23:21.049Z,19.33
2019-03-24T12:24:55.387Z,19.37
2019-03-24T12:26:29.653Z,19.44
2019-03-24T12:28:04.003Z,19.45
2019-03-24T12:29:38.263Z,19.38
2019-03-24T12:31:12.786Z,19.41
2019-03-24T12:32:47.067Z,19.47
2019-03-24T12:34:21.345Z,19.36
2019-03-24T12:35:55.589Z,19.42
2019-03-24T12:37:29.897Z,19.50
2019-03-24T12:39:05.206Z,19.54
2019-03-24T12:40:40.499Z,19.68
2019-03-24T12:42:14.750Z,19.76
2019-03-24T12:43:49.070Z,19.84
2019-03-24T12:45:23.933Z,19.90
2019-03-24T12:46:58.854Z,19.87
2019-03-24T12:48:33.190Z,19.82
2019-03-24T12:50:09.977Z,19.75
2019-03-24T12:51:44.798Z,19.79
2019-03-24T12:53:19.099Z,19.79
2019-03-24T12:54:53.394Z,19.38
2019-03-24T12:56:27.682Z,19.83
2019-03-24T12:58:02.035Z,19.88
2019-03-24T12:59:36.250Z,19.78
2019-03-24T13:01:10.471Z,19.74
2019-03-24T13:02:45.256Z,19.73
2019-03-24T13:04:19.597Z,19.60
2019-03-24T13:05:53.822Z,19.52
2019-03-24T13:07:28.068Z,19.56
2019-03-24T13:09:02.459Z,19.56
2019-03-24T13:10:36.704Z,19.61
2019-03-24T13:12:10.950Z,19.63
2019-03-24T13:13:45.223Z,19.67
2019-03-24T13:15:19.445Z,19.74
2019-03-24T13:16:54.148Z,19.76
2019-03-24T13:18:28.870Z,19.77
2019-03-24T13:20:04.257Z,19.82
2019-03-24T13:21:38.917Z,19.83
2019-03-24T13:23:13.141Z,19.81
2019-03-24T13:24:47.441Z,19.87
2019-03-24T13:26:21.789Z,19.93
2019-03-24T13:27:56.029Z,19.91
2019-03-24T13:29:30.255Z,19.95
2019-03-24T13:31:04.464Z,20.01
2019-03-24T13:32:38.724Z,20.07
2019-03-24T13:34:13.415Z,20.11
2019-03-24T13:35:49.274Z,20.11
2019-03-24T13:37:23.562Z,20.06
2019-03-24T13:38:57.899Z,20.04
2019-03-24T13:40:32.235Z,20.05
2019-03-24T13:42:06.523Z,20.03
2019-03-24T13:43:40.865Z,19.93
2019-03-24T13:45:15.159Z,19.87
2019-03-24T13:46:49.391Z,19.90
2019-03-24T13:48:23.675Z,19.88
2019-03-24T13:49:58.544Z,19.92
2019-03-24T13:51:32.825Z,19.98
2019-03-24T13:53:07.675Z,20.03
2019-03-24T13:54:41.985Z,20.03
2019-03-24T13:56:16.281Z,19.95
2019-03-24T13:57:50.570Z,19.93
2019-03-24T13:59:24.874Z,19.94
2019-03-24T14:00:59.126Z,19.88
2019-03-24T14:02:33.458Z,19.90
2019-03-24T14:04:07.676Z,19.89
2019-03-24T14:05:42.296Z,19.86
2019-03-24T14:07:16.571Z,19.86
2019-03-24T14:08:50.799Z,19.80
2019-03-24T14:10:25.018Z,19.79
2019-03-24T14:11:59.247Z,19.84
2019-03-24T14:13:33.596Z,19.83
2019-03-24T14:15:08.880Z,19.82
2019-03-24T14:16:43.164Z,19.78
2019-03-24T14:18:17.389Z,19.74
2019-03-24T14:19:51.724Z,19.73
2019-03-24T14:21:26.010Z,19.70
2019-03-24T14:23:00.529Z,19.66
2019-03-24T14:24:34.833Z,19.61
2019-03-24T14:26:09.117Z,19.62
2019-03-24T14:27:43.466Z,19.71
2019-03-24T14:29:17.754Z,19.80
2019-03-24T14:30:52.127Z,19.82
2019-03-24T14:32:26.429Z,19.79
2019-03-24T14:34:00.745Z,19.75
2019-03-24T14:35:35.044Z,19.66
2019-03-24T14:37:11.667Z,19.64
2019-03-24T14:38:45.180Z,19.66
2019-03-24T14:40:21.072Z,19.60
2019-03-24T14:41:55.378Z,19.60
2019-03-24T14:43:29.737Z,19.46
2019-03-24T14:45:05.383Z,19.58
2019-03-24T14:46:39.624Z,19.56
2019-03-24T14:48:13.936Z,19.52
2019-03-24T14:49:48.205Z,19.53
2019-03-24T14:51:22.526Z,19.53
2019-03-24T14:52:56.804Z,19.55
2019-03-24T14:54:31.113Z,19.63
2019-03-24T14:56:05.410Z,19.69
2019-03-24T14:57:39.769Z,19.72
2019-03-24T14:59:13.990Z,19.73
2019-03-24T15:00:49.835Z,19.69
2019-03-24T15:02:24.137Z,19.69
2019-03-24T15:03:58.475Z,19.60
2019-03-24T15:05:32.776Z,19.58
2019-03-24T15:07:07.084Z,19.59
2019-03-24T15:08:41.410Z,19.60
2019-03-24T15:10:15.678Z,19.57
2019-03-24T15:11:49.999Z,19.53
2019-03-24T15:13:24.289Z,19.51
2019-03-24T15:14:59.026Z,19.45
2019-03-24T15:16:33.399Z,19.43
2019-03-24T15:18:07.745Z,19.42
2019-03-24T15:19:41.961Z,19.35
2019-03-24T15:21:16.296Z,19.32
2019-03-24T15:22:50.583Z,19.28
2019-03-24T15:24:25.020Z,19.24
2019-03-24T15:25:59.240Z,19.16
2019-03-24T15:27:35.018Z,19.11
2019-03-24T15:29:09.380Z,19.11
2019-03-24T15:30:43.625Z,19.12
2019-03-24T15:32:17.932Z,19.10
2019-03-24T15:33:52.257Z,19.05
2019-03-24T15:35:28.081Z,19.02
2019-03-24T15:37:02.298Z,18.97
2019-03-24T15:38:36.611Z,18.98
2019-03-24T15:40:11.111Z,18.94
2019-03-24T15:41:45.366Z,18.88
2019-03-24T15:43:19.670Z,18.82
2019-03-24T15:44:53.981Z,18.77
2019-03-24T15:46:28.297Z,18.75
2019-03-24T15:48:02.563Z,18.70
2019-03-24T15:49:36.872Z,18.64
2019-03-24T15:51:16.766Z,18.59
2019-03-24T15:52:47.161Z,18.53
2019-03-24T15:54:22.005Z,18.47
2019-03-24T15:55:56.332Z,18.43
2019-03-24T15:57:30.701Z,18.38
2019-03-24T15:59:04.995Z,18.28
2019-03-24T16:00:44.417Z,18.21
2019-03-24T16:02:18.733Z,18.16
2019-03-24T16:03:53.025Z,18.09
2019-03-24T16:05:27.326Z,18.04
2019-03-24T16:07:01.651Z,17.99
2019-03-24T16:08:35.911Z,17.93
2019-03-24T16:10:10.956Z,17.88
2019-03-24T16:11:45.196Z,17.81
2019-03-24T16:13:19.520Z,17.73
2019-03-24T16:14:53.808Z,17.64
2019-03-24T16:16:28.161Z,17.57
2019-03-24T16:18:02.529Z,17.49
2019-03-24T16:19:36.753Z,17.41
2019-03-24T16:21:10.998Z,17.33
2019-03-24T16:22:45.288Z,17.25
2019-03-24T16:24:19.622Z,17.16
2019-03-24T16:25:55.732Z,17.10
2019-03-24T16:27:30.183Z,16.99
2019-03-24T16:29:05.883Z,16.91
2019-03-24T16:30:40.168Z,16.83
2019-03-24T16:32:14.533Z,16.75
2019-03-24T16:33:48.873Z,16.66
2019-03-24T16:35:23.083Z,16.59
2019-03-24T16:36:57.427Z,16.49
2019-03-24T16:38:31.773Z,16.40
2019-03-24T16:40:10.096Z,16.28
2019-03-24T16:41:44.396Z,16.16
2019-03-24T16:43:18.713Z,16.07
2019-03-24T16:44:53.080Z,15.95
2019-03-24T16:46:27.721Z,15.86
2019-03-24T16:48:02.045Z,15.79
2019-03-24T16:49:36.361Z,15.73
2019-03-24T16:51:10.664Z,15.66
2019-03-24T16:52:44.981Z,15.58
2019-03-24T16:54:19.380Z,15.50
2019-03-24T16:55:53.570Z,15.44
2019-03-24T16:57:29.105Z,15.41
2019-03-24T16:59:03.406Z,15.36
2019-03-24T17:00:37.714Z,15.30
2019-03-24T17:02:12.014Z,15.23
2019-03-24T17:03:46.257Z,15.13
2019-03-24T17:05:20.585Z,15.04
2019-03-24T17:06:54.908Z,14.95
2019-03-24T17:08:29.191Z,14.86
2019-03-24T17:10:04.208Z,14.75
2019-03-24T17:11:38.521Z,14.64
2019-03-24T17:13:12.876Z,14.55
2019-03-24T17:14:47.208Z,14.46
2019-03-24T17:16:21.538Z,14.36
2019-03-24T17:17:55.886Z,14.26
2019-03-24T17:19:30.186Z,14.13
2019-03-24T17:21:05.805Z,14.01
2019-03-24T17:22:40.693Z,13.89
2019-03-24T17:24:15.002Z,13.79
2019-03-24T17:25:49.985Z,13.69
2019-03-24T17:27:24.831Z,13.60
2019-03-24T17:28:59.200Z,13.50
2019-03-24T17:30:35.072Z,13.42
2019-03-24T17:32:09.377Z,13.35
2019-03-24T17:33:43.724Z,13.27
2019-03-24T17:35:17.996Z,13.19
2019-03-24T17:36:52.255Z,13.11
2019-03-24T17:38:26.597Z,13.02
2019-03-24T17:40:00.824Z,12.92
2019-03-24T17:41:35.891Z,12.84
2019-03-24T17:43:10.097Z,12.75
2019-03-24T17:44:44.419Z,12.67
2019-03-24T17:46:19.557Z,12.62
2019-03-24T17:47:54.050Z,12.56
2019-03-24T17:49:28.336Z,12.51
2019-03-24T17:51:02.694Z,12.47
2019-03-24T17:52:37.922Z,12.41
2019-03-24T17:54:12.255Z,12.37
2019-03-24T17:55:46.533Z,12.32
2019-03-24T17:57:20.841Z,12.27
2019-03-24T17:58:55.091Z,12.20
2019-03-24T18:00:45.370Z,12.12
2019-03-24T18:02:19.757Z,12.04
2019-03-24T18:03:53.979Z,11.95
2019-03-24T18:05:29.689Z,11.85
2019-03-24T18:07:04.002Z,11.71
2019-03-24T18:08:41.494Z,11.56
2019-03-24T18:10:15.727Z,11.42
2019-03-24T18:11:49.951Z,11.31
2019-03-24T18:13:24.240Z,11.19
2019-03-24T18:14:58.541Z,11.10
2019-03-24T18:16:32.853Z,11.01
2019-03-24T18:18:07.167Z,10.95
2019-03-24T18:19:41.505Z,10.89
2019-03-24T18:21:16.664Z,10.84
2019-03-24T18:22:51.309Z,10.77
2019-03-24T18:24:25.612Z,10.71
2019-03-24T18:25:59.931Z,10.64
2019-03-24T18:27:34.441Z,10.59
2019-03-24T18:29:08.769Z,10.56
2019-03-24T18:30:43.094Z,10.51
2019-03-24T18:32:17.407Z,10.49
2019-03-24T18:33:51.671Z,10.44
2019-03-24T18:35:25.940Z,10.40
2019-03-24T18:37:00.257Z,10.36
2019-03-24T18:38:34.513Z,10.31
2019-03-24T18:40:09.991Z,10.28
2019-03-24T18:41:44.291Z,10.22
2019-03-24T18:43:18.518Z,10.16
2019-03-24T18:44:52.822Z,10.07
2019-03-24T18:46:27.054Z,10.00
2019-03-24T18:48:01.331Z,9.96
2019-03-24T18:49:35.716Z,9.92
2019-03-24T18:51:10.037Z,9.89
2019-03-24T18:52:44.358Z,9.84
2019-03-24T18:54:18.611Z,9.81
2019-03-24T18:55:52.945Z,9.78
2019-03-24T18:57:27.287Z,9.75
2019-03-24T18:59:03.476Z,9.73
2019-03-24T19:00:37.630Z,9.71
2019-03-24T19:02:13.704Z,9.68
2019-03-24T19:03:48.010Z,9.65
2019-03-24T19:05:23.885Z,9.61
2019-03-24T19:06:58.175Z,9.57
2019-03-24T19:08:32.453Z,9.48
2019-03-24T19:10:08.755Z,9.36
2019-03-24T19:11:44.654Z,9.22
2019-03-24T19:13:20.273Z,9.17
2019-03-24T19:14:56.841Z,9.13
2019-03-24T19:16:31.082Z,9.07
2019-03-24T19:18:05.341Z,8.97
2019-03-24T19:19:39.659Z,8.88
2019-03-24T19:21:14.036Z,8.80
2019-03-24T19:22:48.348Z,8.72
2019-03-24T19:24:22.766Z,8.62
2019-03-24T19:25:57.502Z,8.54
2019-03-24T19:27:31.734Z,8.47
2019-03-24T19:29:06.234Z,8.44
2019-03-24T19:30:42.869Z,8.41
2019-03-24T19:32:17.126Z,8.37
2019-03-24T19:33:51.549Z,8.33
2019-03-24T19:35:27.325Z,8.33
2019-03-24T19:37:02.053Z,8.28
2019-03-24T19:38:36.682Z,8.27
2019-03-24T19:40:25.759Z,8.19
2019-03-24T19:41:59.965Z,8.13
2019-03-24T19:43:34.313Z,8.11
2019-03-24T19:45:08.702Z,8.08
2019-03-24T19:46:42.919Z,8.04
2019-03-24T19:48:17.222Z,7.98
2019-03-24T19:49:51.511Z,7.95
2019-03-24T19:51:25.844Z,7.92
2019-03-24T19:53:00.197Z,7.91
2019-03-24T19:54:34.560Z,7.88
2019-03-24T19:56:08.896Z,7.86
2019-03-24T19:57:43.249Z,7.82
2019-03-24T19:59:17.971Z,7.81
2019-03-24T20:00:52.275Z,7.78
2019-03-24T20:02:26.603Z,7.74
2019-03-24T20:04:00.984Z,7.71
2019-03-24T20:05:35.243Z,7.69
2019-03-24T20:07:08.968Z,7.64
2019-03-24T20:08:42.680Z,7.58
2019-03-24T20:10:16.995Z,7.52
2019-03-24T20:11:51.388Z,7.47
2019-03-24T20:13:27.327Z,7.41
2019-03-24T20:15:01.648Z,7.38
2019-03-24T20:16:35.984Z,7.36
2019-03-24T20:18:10.208Z,7.33
2019-03-24T20:19:45.586Z,7.30
2019-03-24T20:21:19.954Z,7.26
2019-03-24T20:22:56.747Z,7.21
2019-03-24T20:24:30.246Z,7.20
2019-03-24T20:26:04.560Z,7.16
2019-03-24T20:27:38.925Z,7.11
2019-03-24T20:29:13.259Z,7.10
2019-03-24T20:30:47.557Z,7.07
2019-03-24T20:32:21.874Z,7.08